sensor_id;sensor_type;location;lat;lon;timestamp;P1;durP1;ratioP1;P2;durP2;ratioP2
11907;SDS011;6014;47.690;9.130;2024-01-30T00:01:20;13.07;;;3.90;;
11907;SDS011;6014;47.690;9.130;2024-01-30T00:03:48;11.27;;;3.80;;
11907;SDS011;6014;47.690;9.130;2024-01-30T00:06:18;8.87;;;3.40;;
11907;SDS011;6014;47.690;9.130;2024-01-30T00:08:46;6.13;;;3.40;;
11907;SDS011;6014;47.690;9.130;2024-01-30T00:11:15;5.83;;;2.90;;
11907;SDS011;6014;47.690;9.130;2024-01-30T00:13:45;6.23;;;3.53;;
11907;SDS011;6014;47.690;9.130;2024-01-30T00:16:19;5.20;;;2.93;;
11907;SDS011;6014;47.690;9.130;2024-01-30T00:18:48;6.07;;;3.47;;
11907;SDS011;6014;47.690;9.130;2024-01-30T00:21:15;7.13;;;3.53;;
11907;SDS011;6014;47.690;9.130;2024-01-30T00:23:44;5.17;;;2.97;;
11907;SDS011;6014;47.690;9.130;2024-01-30T00:26:12;5.97;;;3.10;;
11907;SDS011;6014;47.690;9.130;2024-01-30T00:28:41;8.73;;;3.13;;
11907;SDS011;6014;47.690;9.130;2024-01-30T00:31:10;5.83;;;3.10;;
11907;SDS011;6014;47.690;9.130;2024-01-30T00:33:39;7.07;;;3.70;;
11907;SDS011;6014;47.690;9.130;2024-01-30T00:36:08;6.07;;;3.50;;
11907;SDS011;6014;47.690;9.130;2024-01-30T00:38:38;8.70;;;2.97;;
11907;SDS011;6014;47.690;9.130;2024-01-30T00:41:07;5.97;;;3.10;;
11907;SDS011;6014;47.690;9.130;2024-01-30T00:43:36;6.20;;;3.43;;
11907;SDS011;6014;47.690;9.130;2024-01-30T00:46:04;14.63;;;4.00;;
11907;SDS011;6014;47.690;9.130;2024-01-30T00:48:35;8.10;;;3.80;;
11907;SDS011;6014;47.690;9.130;2024-01-30T00:51:04;6.83;;;3.93;;
11907;SDS011;6014;47.690;9.130;2024-01-30T00:53:32;6.47;;;3.67;;
11907;SDS011;6014;47.690;9.130;2024-01-30T00:56:10;8.80;;;2.87;;
11907;SDS011;6014;47.690;9.130;2024-01-30T00:58:38;5.20;;;2.93;;
11907;SDS011;6014;47.690;9.130;2024-01-30T01:01:06;5.97;;;3.00;;
11907;SDS011;6014;47.690;9.130;2024-01-30T01:03:36;11.10;;;4.00;;
11907;SDS011;6014;47.690;9.130;2024-01-30T01:06:09;9.93;;;2.70;;
11907;SDS011;6014;47.690;9.130;2024-01-30T01:08:46;8.03;;;3.30;;
11907;SDS011;6014;47.690;9.130;2024-01-30T01:11:14;9.50;;;3.50;;
11907;SDS011;6014;47.690;9.130;2024-01-30T01:13:42;7.97;;;4.20;;
11907;SDS011;6014;47.690;9.130;2024-01-30T01:16:11;4.73;;;2.63;;
11907;SDS011;6014;47.690;9.130;2024-01-30T01:18:41;4.63;;;2.70;;
11907;SDS011;6014;47.690;9.130;2024-01-30T01:21:09;6.33;;;3.10;;
11907;SDS011;6014;47.690;9.130;2024-01-30T01:26:25;4.30;;;2.43;;
11907;SDS011;6014;47.690;9.130;2024-01-30T01:28:53;6.23;;;3.33;;
11907;SDS011;6014;47.690;9.130;2024-01-30T01:31:23;13.40;;;3.80;;
11907;SDS011;6014;47.690;9.130;2024-01-30T01:33:57;6.33;;;3.47;;
11907;SDS011;6014;47.690;9.130;2024-01-30T01:36:26;8.77;;;2.60;;
11907;SDS011;6014;47.690;9.130;2024-01-30T01:38:54;7.30;;;2.70;;
11907;SDS011;6014;47.690;9.130;2024-01-30T01:41:22;5.60;;;3.17;;
11907;SDS011;6014;47.690;9.130;2024-01-30T01:43:51;7.87;;;3.00;;
11907;SDS011;6014;47.690;9.130;2024-01-30T01:46:19;7.33;;;2.90;;
11907;SDS011;6014;47.690;9.130;2024-01-30T01:48:48;6.27;;;2.97;;
11907;SDS011;6014;47.690;9.130;2024-01-30T01:51:18;10.67;;;2.70;;
11907;SDS011;6014;47.690;9.130;2024-01-30T01:53:47;8.27;;;2.57;;
11907;SDS011;6014;47.690;9.130;2024-01-30T01:56:21;7.17;;;2.87;;
11907;SDS011;6014;47.690;9.130;2024-01-30T01:58:50;4.30;;;2.33;;
11907;SDS011;6014;47.690;9.130;2024-01-30T02:01:21;6.90;;;3.50;;
11907;SDS011;6014;47.690;9.130;2024-01-30T02:03:55;4.87;;;2.90;;
11907;SDS011;6014;47.690;9.130;2024-01-30T02:06:25;5.97;;;3.03;;
11907;SDS011;6014;47.690;9.130;2024-01-30T02:08:54;9.07;;;3.13;;
11907;SDS011;6014;47.690;9.130;2024-01-30T02:16:56;5.33;;;3.27;;
11907;SDS011;6014;47.690;9.130;2024-01-30T02:22:03;6.20;;;2.77;;
11907;SDS011;6014;47.690;9.130;2024-01-30T02:24:40;5.53;;;3.03;;
11907;SDS011;6014;47.690;9.130;2024-01-30T02:27:08;7.17;;;2.97;;
11907;SDS011;6014;47.690;9.130;2024-01-30T02:29:47;7.67;;;3.50;;
11907;SDS011;6014;47.690;9.130;2024-01-30T02:32:25;6.27;;;3.30;;
11907;SDS011;6014;47.690;9.130;2024-01-30T02:34:53;6.67;;;2.83;;
11907;SDS011;6014;47.690;9.130;2024-01-30T02:37:25;6.83;;;3.07;;
11907;SDS011;6014;47.690;9.130;2024-01-30T02:39:57;5.40;;;3.10;;
11907;SDS011;6014;47.690;9.130;2024-01-30T02:42:26;14.63;;;3.77;;
11907;SDS011;6014;47.690;9.130;2024-01-30T02:44:54;7.33;;;3.10;;
11907;SDS011;6014;47.690;9.130;2024-01-30T02:47:22;5.87;;;3.40;;
11907;SDS011;6014;47.690;9.130;2024-01-30T02:49:50;5.10;;;2.67;;
11907;SDS011;6014;47.690;9.130;2024-01-30T02:52:21;4.70;;;2.80;;
11907;SDS011;6014;47.690;9.130;2024-01-30T02:54:51;6.17;;;3.33;;
11907;SDS011;6014;47.690;9.130;2024-01-30T02:57:19;6.23;;;3.07;;
11907;SDS011;6014;47.690;9.130;2024-01-30T02:59:47;4.73;;;2.33;;
11907;SDS011;6014;47.690;9.130;2024-01-30T03:02:15;6.37;;;3.37;;
11907;SDS011;6014;47.690;9.130;2024-01-30T03:04:43;5.80;;;3.10;;
11907;SDS011;6014;47.690;9.130;2024-01-30T03:07:11;7.60;;;2.90;;
11907;SDS011;6014;47.690;9.130;2024-01-30T03:09:41;5.67;;;3.20;;
11907;SDS011;6014;47.690;9.130;2024-01-30T03:12:11;5.00;;;2.77;;
11907;SDS011;6014;47.690;9.130;2024-01-30T03:14:39;7.80;;;3.10;;
11907;SDS011;6014;47.690;9.130;2024-01-30T03:17:08;5.20;;;3.10;;
11907;SDS011;6014;47.690;9.130;2024-01-30T03:19:36;5.00;;;3.00;;
11907;SDS011;6014;47.690;9.130;2024-01-30T03:22:04;5.50;;;3.07;;
11907;SDS011;6014;47.690;9.130;2024-01-30T03:24:32;8.03;;;3.37;;
11907;SDS011;6014;47.690;9.130;2024-01-30T03:27:00;9.07;;;3.43;;
11907;SDS011;6014;47.690;9.130;2024-01-30T03:29:30;8.67;;;2.97;;
11907;SDS011;6014;47.690;9.130;2024-01-30T03:31:58;5.27;;;2.77;;
11907;SDS011;6014;47.690;9.130;2024-01-30T03:34:25;6.67;;;3.20;;
11907;SDS011;6014;47.690;9.130;2024-01-30T03:36:53;5.73;;;2.77;;
11907;SDS011;6014;47.690;9.130;2024-01-30T03:39:21;5.33;;;3.13;;
11907;SDS011;6014;47.690;9.130;2024-01-30T03:41:50;6.73;;;3.50;;
11907;SDS011;6014;47.690;9.130;2024-01-30T03:44:18;5.80;;;3.27;;
11907;SDS011;6014;47.690;9.130;2024-01-30T03:46:47;5.10;;;2.77;;
11907;SDS011;6014;47.690;9.130;2024-01-30T03:49:15;7.10;;;3.30;;
11907;SDS011;6014;47.690;9.130;2024-01-30T03:51:43;11.77;;;3.17;;
11907;SDS011;6014;47.690;9.130;2024-01-30T03:54:14;9.77;;;3.37;;
11907;SDS011;6014;47.690;9.130;2024-01-30T03:56:42;6.03;;;3.13;;
11907;SDS011;6014;47.690;9.130;2024-01-30T03:59:10;5.57;;;3.17;;
11907;SDS011;6014;47.690;9.130;2024-01-30T04:01:38;10.97;;;3.47;;
11907;SDS011;6014;47.690;9.130;2024-01-30T04:04:08;6.53;;;3.37;;
11907;SDS011;6014;47.690;9.130;2024-01-30T04:06:36;5.57;;;2.90;;
11907;SDS011;6014;47.690;9.130;2024-01-30T04:09:04;12.30;;;3.67;;
11907;SDS011;6014;47.690;9.130;2024-01-30T04:11:32;5.50;;;3.10;;
11907;SDS011;6014;47.690;9.130;2024-01-30T04:14:00;4.97;;;2.83;;
11907;SDS011;6014;47.690;9.130;2024-01-30T04:16:28;7.60;;;3.10;;
11907;SDS011;6014;47.690;9.130;2024-01-30T04:18:56;11.60;;;3.63;;
11907;SDS011;6014;47.690;9.130;2024-01-30T04:21:27;5.03;;;2.80;;
11907;SDS011;6014;47.690;9.130;2024-01-30T04:23:55;6.00;;;2.83;;
11907;SDS011;6014;47.690;9.130;2024-01-30T04:26:24;6.77;;;3.17;;
11907;SDS011;6014;47.690;9.130;2024-01-30T04:28:52;8.40;;;4.80;;
11907;SDS011;6014;47.690;9.130;2024-01-30T04:31:20;6.53;;;3.27;;
11907;SDS011;6014;47.690;9.130;2024-01-30T04:33:48;6.23;;;2.97;;
11907;SDS011;6014;47.690;9.130;2024-01-30T04:36:16;5.37;;;3.33;;
11907;SDS011;6014;47.690;9.130;2024-01-30T04:38:46;8.90;;;3.27;;
11907;SDS011;6014;47.690;9.130;2024-01-30T04:41:14;4.60;;;2.83;;
11907;SDS011;6014;47.690;9.130;2024-01-30T04:43:42;8.10;;;3.00;;
11907;SDS011;6014;47.690;9.130;2024-01-30T04:46:10;4.60;;;2.40;;
11907;SDS011;6014;47.690;9.130;2024-01-30T04:48:38;10.67;;;3.33;;
11907;SDS011;6014;47.690;9.130;2024-01-30T04:51:06;9.13;;;2.70;;
11907;SDS011;6014;47.690;9.130;2024-01-30T04:53:34;2.73;;;1.77;;
11907;SDS011;6014;47.690;9.130;2024-01-30T04:58:35;11.33;;;3.20;;
11907;SDS011;6014;47.690;9.130;2024-01-30T05:01:03;5.43;;;2.57;;
11907;SDS011;6014;47.690;9.130;2024-01-30T05:03:32;7.40;;;2.93;;
11907;SDS011;6014;47.690;9.130;2024-01-30T05:06:01;6.40;;;3.13;;
11907;SDS011;6014;47.690;9.130;2024-01-30T05:08:29;10.97;;;3.53;;
11907;SDS011;6014;47.690;9.130;2024-01-30T05:10:59;8.90;;;3.83;;
11907;SDS011;6014;47.690;9.130;2024-01-30T05:13:31;6.07;;;3.37;;
11907;SDS011;6014;47.690;9.130;2024-01-30T05:16:01;7.03;;;3.43;;
11907;SDS011;6014;47.690;9.130;2024-01-30T05:18:30;8.60;;;3.60;;
11907;SDS011;6014;47.690;9.130;2024-01-30T05:20:58;6.60;;;3.23;;
11907;SDS011;6014;47.690;9.130;2024-01-30T05:23:26;5.97;;;3.13;;
11907;SDS011;6014;47.690;9.130;2024-01-30T05:25:54;9.13;;;3.03;;
11907;SDS011;6014;47.690;9.130;2024-01-30T05:28:22;6.23;;;3.37;;
11907;SDS011;6014;47.690;9.130;2024-01-30T05:30:52;9.17;;;3.00;;
11907;SDS011;6014;47.690;9.130;2024-01-30T05:33:20;6.10;;;3.60;;
11907;SDS011;6014;47.690;9.130;2024-01-30T05:35:49;14.10;;;3.80;;
11907;SDS011;6014;47.690;9.130;2024-01-30T05:38:23;9.97;;;3.77;;
11907;SDS011;6014;47.690;9.130;2024-01-30T05:40:54;4.73;;;2.77;;
11907;SDS011;6014;47.690;9.130;2024-01-30T05:43:22;6.60;;;3.47;;
11907;SDS011;6014;47.690;9.130;2024-01-30T05:45:50;11.33;;;3.43;;
11907;SDS011;6014;47.690;9.130;2024-01-30T05:48:20;8.00;;;3.07;;
11907;SDS011;6014;47.690;9.130;2024-01-30T05:50:48;6.80;;;3.13;;
11907;SDS011;6014;47.690;9.130;2024-01-30T05:53:26;7.03;;;3.87;;
11907;SDS011;6014;47.690;9.130;2024-01-30T05:55:54;15.73;;;3.20;;
11907;SDS011;6014;47.690;9.130;2024-01-30T05:58:22;6.23;;;3.40;;
11907;SDS011;6014;47.690;9.130;2024-01-30T06:00:50;6.70;;;3.80;;
11907;SDS011;6014;47.690;9.130;2024-01-30T06:03:20;7.27;;;3.23;;
11907;SDS011;6014;47.690;9.130;2024-01-30T06:05:56;5.93;;;2.83;;
11907;SDS011;6014;47.690;9.130;2024-01-30T06:08:24;6.10;;;3.17;;
11907;SDS011;6014;47.690;9.130;2024-01-30T06:10:52;6.73;;;3.67;;
11907;SDS011;6014;47.690;9.130;2024-01-30T06:13:19;6.53;;;3.27;;
11907;SDS011;6014;47.690;9.130;2024-01-30T06:15:48;6.20;;;3.37;;
11907;SDS011;6014;47.690;9.130;2024-01-30T06:18:17;5.77;;;3.47;;
11907;SDS011;6014;47.690;9.130;2024-01-30T06:20:46;5.80;;;2.93;;
11907;SDS011;6014;47.690;9.130;2024-01-30T06:23:15;14.23;;;4.00;;
11907;SDS011;6014;47.690;9.130;2024-01-30T06:25:43;7.30;;;3.77;;
11907;SDS011;6014;47.690;9.130;2024-01-30T06:28:11;5.63;;;3.23;;
11907;SDS011;6014;47.690;9.130;2024-01-30T06:30:39;6.20;;;3.03;;
11907;SDS011;6014;47.690;9.130;2024-01-30T06:33:07;8.33;;;3.40;;
11907;SDS011;6014;47.690;9.130;2024-01-30T06:35:36;5.63;;;3.33;;
11907;SDS011;6014;47.690;9.130;2024-01-30T06:38:23;8.47;;;3.07;;
11907;SDS011;6014;47.690;9.130;2024-01-30T06:40:51;9.87;;;3.63;;
11907;SDS011;6014;47.690;9.130;2024-01-30T06:43:19;8.87;;;3.40;;
11907;SDS011;6014;47.690;9.130;2024-01-30T06:45:47;7.20;;;3.10;;
11907;SDS011;6014;47.690;9.130;2024-01-30T06:48:18;5.27;;;2.90;;
11907;SDS011;6014;47.690;9.130;2024-01-30T06:50:54;9.17;;;4.00;;
11907;SDS011;6014;47.690;9.130;2024-01-30T06:53:23;7.57;;;3.50;;
11907;SDS011;6014;47.690;9.130;2024-01-30T06:55:52;6.50;;;3.27;;
11907;SDS011;6014;47.690;9.130;2024-01-30T06:58:20;6.13;;;2.53;;
11907;SDS011;6014;47.690;9.130;2024-01-30T07:00:49;6.07;;;3.20;;
11907;SDS011;6014;47.690;9.130;2024-01-30T07:03:17;9.27;;;3.47;;
11907;SDS011;6014;47.690;9.130;2024-01-30T07:05:45;4.33;;;2.33;;
11907;SDS011;6014;47.690;9.130;2024-01-30T07:08:14;7.73;;;3.30;;
11907;SDS011;6014;47.690;9.130;2024-01-30T07:10:43;6.17;;;3.50;;
11907;SDS011;6014;47.690;9.130;2024-01-30T07:13:12;7.53;;;3.90;;
11907;SDS011;6014;47.690;9.130;2024-01-30T07:15:42;6.57;;;2.70;;
11907;SDS011;6014;47.690;9.130;2024-01-30T07:18:10;6.73;;;3.13;;
11907;SDS011;6014;47.690;9.130;2024-01-30T07:20:39;5.67;;;3.10;;
11907;SDS011;6014;47.690;9.130;2024-01-30T07:23:12;7.70;;;3.57;;
11907;SDS011;6014;47.690;9.130;2024-01-30T07:25:43;6.43;;;3.03;;
11907;SDS011;6014;47.690;9.130;2024-01-30T07:28:15;6.77;;;3.63;;
11907;SDS011;6014;47.690;9.130;2024-01-30T07:30:44;5.10;;;3.23;;
11907;SDS011;6014;47.690;9.130;2024-01-30T07:33:12;6.23;;;3.03;;
11907;SDS011;6014;47.690;9.130;2024-01-30T07:35:41;8.93;;;3.20;;
11907;SDS011;6014;47.690;9.130;2024-01-30T07:38:16;6.53;;;3.60;;
11907;SDS011;6014;47.690;9.130;2024-01-30T07:40:58;5.53;;;2.93;;
11907;SDS011;6014;47.690;9.130;2024-01-30T07:43:26;7.47;;;3.30;;
11907;SDS011;6014;47.690;9.130;2024-01-30T07:45:54;6.83;;;3.53;;
11907;SDS011;6014;47.690;9.130;2024-01-30T07:48:23;8.67;;;3.00;;
11907;SDS011;6014;47.690;9.130;2024-01-30T07:53:59;11.27;;;5.37;;
11907;SDS011;6014;47.690;9.130;2024-01-30T07:56:28;11.27;;;6.27;;
11907;SDS011;6014;47.690;9.130;2024-01-30T07:58:56;8.53;;;4.07;;
11907;SDS011;6014;47.690;9.130;2024-01-30T08:01:24;6.73;;;3.40;;
11907;SDS011;6014;47.690;9.130;2024-01-30T08:03:52;10.00;;;4.10;;
11907;SDS011;6014;47.690;9.130;2024-01-30T08:06:21;5.50;;;3.40;;
11907;SDS011;6014;47.690;9.130;2024-01-30T08:08:49;10.47;;;3.93;;
11907;SDS011;6014;47.690;9.130;2024-01-30T08:11:19;14.43;;;8.27;;
11907;SDS011;6014;47.690;9.130;2024-01-30T08:13:53;24.57;;;13.90;;
11907;SDS011;6014;47.690;9.130;2024-01-30T08:16:21;14.03;;;5.77;;
11907;SDS011;6014;47.690;9.130;2024-01-30T08:18:49;11.57;;;5.13;;
11907;SDS011;6014;47.690;9.130;2024-01-30T08:21:17;6.83;;;3.93;;
11907;SDS011;6014;47.690;9.130;2024-01-30T08:23:45;6.00;;;3.53;;
11907;SDS011;6014;47.690;9.130;2024-01-30T08:26:14;14.70;;;3.90;;
11907;SDS011;6014;47.690;9.130;2024-01-30T08:28:42;6.87;;;3.77;;
11907;SDS011;6014;47.690;9.130;2024-01-30T08:31:11;7.97;;;4.03;;
11907;SDS011;6014;47.690;9.130;2024-01-30T08:33:40;7.57;;;3.80;;
11907;SDS011;6014;47.690;9.130;2024-01-30T08:36:09;6.47;;;3.67;;
11907;SDS011;6014;47.690;9.130;2024-01-30T08:38:37;9.43;;;3.90;;
11907;SDS011;6014;47.690;9.130;2024-01-30T08:41:06;6.53;;;3.60;;
11907;SDS011;6014;47.690;9.130;2024-01-30T08:43:35;7.40;;;3.53;;
11907;SDS011;6014;47.690;9.130;2024-01-30T08:46:03;6.63;;;3.37;;
11907;SDS011;6014;47.690;9.130;2024-01-30T08:48:33;9.17;;;3.03;;
11907;SDS011;6014;47.690;9.130;2024-01-30T08:51:03;6.83;;;3.30;;
11907;SDS011;6014;47.690;9.130;2024-01-30T08:53:34;6.23;;;3.07;;
11907;SDS011;6014;47.690;9.130;2024-01-30T08:56:03;7.33;;;3.77;;
11907;SDS011;6014;47.690;9.130;2024-01-30T08:58:33;9.80;;;3.70;;
11907;SDS011;6014;47.690;9.130;2024-01-30T09:01:01;7.03;;;3.97;;
11907;SDS011;6014;47.690;9.130;2024-01-30T09:03:39;5.73;;;2.90;;
11907;SDS011;6014;47.690;9.130;2024-01-30T09:06:09;7.20;;;3.67;;
11907;SDS011;6014;47.690;9.130;2024-01-30T09:08:38;6.30;;;3.70;;
11907;SDS011;6014;47.690;9.130;2024-01-30T09:11:08;6.83;;;3.63;;
11907;SDS011;6014;47.690;9.130;2024-01-30T09:13:36;5.80;;;3.27;;
11907;SDS011;6014;47.690;9.130;2024-01-30T09:16:05;7.00;;;3.80;;
11907;SDS011;6014;47.690;9.130;2024-01-30T09:18:33;8.50;;;3.80;;
11907;SDS011;6014;47.690;9.130;2024-01-30T09:21:03;5.87;;;3.70;;
11907;SDS011;6014;47.690;9.130;2024-01-30T09:23:31;9.67;;;3.70;;
11907;SDS011;6014;47.690;9.130;2024-01-30T09:25:59;7.10;;;3.53;;
11907;SDS011;6014;47.690;9.130;2024-01-30T09:28:28;6.07;;;3.50;;
11907;SDS011;6014;47.690;9.130;2024-01-30T09:30:56;7.53;;;4.63;;
11907;SDS011;6014;47.690;9.130;2024-01-30T09:33:24;8.50;;;4.43;;
11907;SDS011;6014;47.690;9.130;2024-01-30T09:35:52;8.83;;;5.07;;
11907;SDS011;6014;47.690;9.130;2024-01-30T09:38:22;8.77;;;4.53;;
11907;SDS011;6014;47.690;9.130;2024-01-30T09:40:52;11.20;;;4.30;;
11907;SDS011;6014;47.690;9.130;2024-01-30T09:43:22;8.80;;;4.90;;
11907;SDS011;6014;47.690;9.130;2024-01-30T09:45:53;8.43;;;4.33;;
11907;SDS011;6014;47.690;9.130;2024-01-30T09:48:21;8.23;;;4.50;;
11907;SDS011;6014;47.690;9.130;2024-01-30T09:50:50;8.20;;;3.97;;
11907;SDS011;6014;47.690;9.130;2024-01-30T09:53:19;7.73;;;4.07;;
11907;SDS011;6014;47.690;9.130;2024-01-30T09:55:50;10.67;;;4.33;;
11907;SDS011;6014;47.690;9.130;2024-01-30T09:58:18;8.77;;;4.63;;
11907;SDS011;6014;47.690;9.130;2024-01-30T10:00:56;9.17;;;4.70;;
11907;SDS011;6014;47.690;9.130;2024-01-30T10:06:12;7.70;;;4.50;;
11907;SDS011;6014;47.690;9.130;2024-01-30T10:08:47;8.63;;;4.33;;
11907;SDS011;6014;47.690;9.130;2024-01-30T10:11:15;7.73;;;4.90;;
11907;SDS011;6014;47.690;9.130;2024-01-30T10:13:43;8.60;;;4.63;;
11907;SDS011;6014;47.690;9.130;2024-01-30T10:16:13;14.33;;;4.93;;
11907;SDS011;6014;47.690;9.130;2024-01-30T10:18:43;9.13;;;5.00;;
11907;SDS011;6014;47.690;9.130;2024-01-30T10:21:11;9.10;;;4.60;;
11907;SDS011;6014;47.690;9.130;2024-01-30T10:23:40;9.30;;;5.23;;
11907;SDS011;6014;47.690;9.130;2024-01-30T10:26:09;10.17;;;5.73;;
11907;SDS011;6014;47.690;9.130;2024-01-30T10:28:37;8.47;;;5.20;;
11907;SDS011;6014;47.690;9.130;2024-01-30T10:31:06;9.33;;;5.13;;
11907;SDS011;6014;47.690;9.130;2024-01-30T10:33:34;7.90;;;4.57;;
11907;SDS011;6014;47.690;9.130;2024-01-30T10:36:02;11.03;;;4.43;;
11907;SDS011;6014;47.690;9.130;2024-01-30T10:38:32;8.23;;;4.53;;
11907;SDS011;6014;47.690;9.130;2024-01-30T10:43:35;9.93;;;5.27;;
11907;SDS011;6014;47.690;9.130;2024-01-30T10:46:10;9.33;;;4.70;;
11907;SDS011;6014;47.690;9.130;2024-01-30T10:48:42;9.40;;;5.23;;
11907;SDS011;6014;47.690;9.130;2024-01-30T10:51:12;8.60;;;5.30;;
11907;SDS011;6014;47.690;9.130;2024-01-30T10:53:41;9.67;;;5.67;;
11907;SDS011;6014;47.690;9.130;2024-01-30T10:56:14;8.87;;;5.17;;
11907;SDS011;6014;47.690;9.130;2024-01-30T10:58:45;9.77;;;5.40;;
11907;SDS011;6014;47.690;9.130;2024-01-30T11:04:02;9.73;;;5.23;;
11907;SDS011;6014;47.690;9.130;2024-01-30T11:06:31;7.83;;;4.63;;
11907;SDS011;6014;47.690;9.130;2024-01-30T11:09:00;7.93;;;5.20;;
11907;SDS011;6014;47.690;9.130;2024-01-30T11:11:29;10.67;;;5.97;;
11907;SDS011;6014;47.690;9.130;2024-01-30T11:14:01;10.83;;;5.77;;
11907;SDS011;6014;47.690;9.130;2024-01-30T11:16:30;9.03;;;5.27;;
11907;SDS011;6014;47.690;9.130;2024-01-30T11:21:44;10.87;;;5.57;;
11907;SDS011;6014;47.690;9.130;2024-01-30T11:24:14;8.37;;;4.90;;
11907;SDS011;6014;47.690;9.130;2024-01-30T11:26:55;8.03;;;4.87;;
11907;SDS011;6014;47.690;9.130;2024-01-30T11:29:25;10.33;;;5.80;;
11907;SDS011;6014;47.690;9.130;2024-01-30T11:31:56;9.63;;;5.80;;
11907;SDS011;6014;47.690;9.130;2024-01-30T11:34:25;9.30;;;5.30;;
11907;SDS011;6014;47.690;9.130;2024-01-30T11:36:55;11.00;;;6.40;;
11907;SDS011;6014;47.690;9.130;2024-01-30T11:39:26;9.60;;;5.83;;
11907;SDS011;6014;47.690;9.130;2024-01-30T11:41:55;10.63;;;6.57;;
11907;SDS011;6014;47.690;9.130;2024-01-30T11:44:23;9.27;;;5.93;;
11907;SDS011;6014;47.690;9.130;2024-01-30T11:46:53;9.50;;;5.50;;
11907;SDS011;6014;47.690;9.130;2024-01-30T11:49:21;11.30;;;5.63;;
11907;SDS011;6014;47.690;9.130;2024-01-30T11:51:50;11.40;;;6.07;;
11907;SDS011;6014;47.690;9.130;2024-01-30T11:54:20;9.37;;;5.50;;
11907;SDS011;6014;47.690;9.130;2024-01-30T11:56:48;11.13;;;5.70;;
11907;SDS011;6014;47.690;9.130;2024-01-30T11:59:16;10.23;;;5.80;;
11907;SDS011;6014;47.690;9.130;2024-01-30T12:01:45;9.30;;;5.47;;
11907;SDS011;6014;47.690;9.130;2024-01-30T12:04:14;10.13;;;5.90;;
11907;SDS011;6014;47.690;9.130;2024-01-30T12:06:42;9.07;;;5.77;;
11907;SDS011;6014;47.690;9.130;2024-01-30T12:09:10;10.10;;;6.20;;
11907;SDS011;6014;47.690;9.130;2024-01-30T12:11:45;8.97;;;4.90;;
11907;SDS011;6014;47.690;9.130;2024-01-30T12:14:14;9.73;;;5.47;;
11907;SDS011;6014;47.690;9.130;2024-01-30T12:16:43;30.30;;;15.30;;
11907;SDS011;6014;47.690;9.130;2024-01-30T12:19:22;19.37;;;11.97;;
11907;SDS011;6014;47.690;9.130;2024-01-30T12:21:58;10.87;;;6.60;;
11907;SDS011;6014;47.690;9.130;2024-01-30T12:24:26;10.80;;;6.23;;
11907;SDS011;6014;47.690;9.130;2024-01-30T12:26:56;10.53;;;5.87;;
11907;SDS011;6014;47.690;9.130;2024-01-30T12:29:25;10.50;;;6.43;;
11907;SDS011;6014;47.690;9.130;2024-01-30T12:32:00;12.90;;;7.20;;
11907;SDS011;6014;47.690;9.130;2024-01-30T12:34:29;10.77;;;6.50;;
11907;SDS011;6014;47.690;9.130;2024-01-30T12:37:04;11.07;;;6.50;;
11907;SDS011;6014;47.690;9.130;2024-01-30T12:39:35;12.50;;;7.30;;
11907;SDS011;6014;47.690;9.130;2024-01-30T12:42:04;10.95;;;6.43;;
11907;SDS011;6014;47.690;9.130;2024-01-30T12:44:32;11.37;;;6.77;;
11907;SDS011;6014;47.690;9.130;2024-01-30T12:47:02;12.73;;;7.10;;
11907;SDS011;6014;47.690;9.130;2024-01-30T12:49:32;10.83;;;7.40;;
11907;SDS011;6014;47.690;9.130;2024-01-30T12:52:00;10.80;;;6.07;;
11907;SDS011;6014;47.690;9.130;2024-01-30T12:54:30;10.27;;;6.35;;
11907;SDS011;6014;47.690;9.130;2024-01-30T12:56:58;9.53;;;5.60;;
11907;SDS011;6014;47.690;9.130;2024-01-30T12:59:30;9.73;;;4.87;;
11907;SDS011;6014;47.690;9.130;2024-01-30T13:04:33;11.20;;;6.67;;
11907;SDS011;6014;47.690;9.130;2024-01-30T13:07:02;10.93;;;6.30;;
11907;SDS011;6014;47.690;9.130;2024-01-30T13:09:49;10.40;;;6.07;;
11907;SDS011;6014;47.690;9.130;2024-01-30T13:12:17;9.43;;;5.53;;
11907;SDS011;6014;47.690;9.130;2024-01-30T13:14:53;11.27;;;5.57;;
11907;SDS011;6014;47.690;9.130;2024-01-30T13:17:22;8.70;;;4.93;;
11907;SDS011;6014;47.690;9.130;2024-01-30T13:19:51;19.30;;;9.53;;
11907;SDS011;6014;47.690;9.130;2024-01-30T13:22:27;10.40;;;5.47;;
11907;SDS011;6014;47.690;9.130;2024-01-30T13:24:55;8.73;;;5.33;;
11907;SDS011;6014;47.690;9.130;2024-01-30T13:27:24;9.73;;;5.35;;
11907;SDS011;6014;47.690;9.130;2024-01-30T13:29:53;8.90;;;5.90;;
11907;SDS011;6014;47.690;9.130;2024-01-30T13:32:21;10.70;;;5.60;;
11907;SDS011;6014;47.690;9.130;2024-01-30T13:34:49;12.80;;;6.07;;
11907;SDS011;6014;47.690;9.130;2024-01-30T13:37:18;10.03;;;5.50;;
11907;SDS011;6014;47.690;9.130;2024-01-30T13:39:47;9.20;;;5.30;;
11907;SDS011;6014;47.690;9.130;2024-01-30T13:42:15;9.83;;;5.93;;
11907;SDS011;6014;47.690;9.130;2024-01-30T13:44:43;12.40;;;5.68;;
11907;SDS011;6014;47.690;9.130;2024-01-30T13:47:11;10.88;;;5.60;;
11907;SDS011;6014;47.690;9.130;2024-01-30T13:49:39;9.23;;;5.63;;
11907;SDS011;6014;47.690;9.130;2024-01-30T13:52:07;9.75;;;5.40;;
11907;SDS011;6014;47.690;9.130;2024-01-30T13:54:40;11.20;;;6.28;;
11907;SDS011;6014;47.690;9.130;2024-01-30T13:57:09;8.23;;;5.13;;
11907;SDS011;6014;47.690;9.130;2024-01-30T13:59:37;9.93;;;5.53;;
11907;SDS011;6014;47.690;9.130;2024-01-30T14:04:38;10.40;;;5.85;;
11907;SDS011;6014;47.690;9.130;2024-01-30T14:07:06;11.77;;;5.65;;
11907;SDS011;6014;47.690;9.130;2024-01-30T14:09:35;10.10;;;6.15;;
11907;SDS011;6014;47.690;9.130;2024-01-30T14:12:04;9.90;;;6.00;;
11907;SDS011;6014;47.690;9.130;2024-01-30T14:14:33;9.98;;;6.40;;
11907;SDS011;6014;47.690;9.130;2024-01-30T14:17:01;8.85;;;5.50;;
11907;SDS011;6014;47.690;9.130;2024-01-30T14:19:29;9.70;;;5.60;;
11907;SDS011;6014;47.690;9.130;2024-01-30T14:21:57;9.45;;;5.45;;
11907;SDS011;6014;47.690;9.130;2024-01-30T14:24:25;9.55;;;5.85;;
11907;SDS011;6014;47.690;9.130;2024-01-30T14:26:53;9.35;;;5.75;;
11907;SDS011;6014;47.690;9.130;2024-01-30T14:29:23;10.63;;;6.47;;
11907;SDS011;6014;47.690;9.130;2024-01-30T14:31:51;10.07;;;6.20;;
11907;SDS011;6014;47.690;9.130;2024-01-30T14:34:19;12.77;;;5.97;;
11907;SDS011;6014;47.690;9.130;2024-01-30T14:36:47;10.90;;;6.05;;
11907;SDS011;6014;47.690;9.130;2024-01-30T14:39:15;11.10;;;6.40;;
11907;SDS011;6014;47.690;9.130;2024-01-30T14:41:44;12.10;;;5.90;;
11907;SDS011;6014;47.690;9.130;2024-01-30T14:44:12;10.98;;;6.13;;
11907;SDS011;6014;47.690;9.130;2024-01-30T14:46:42;10.50;;;5.43;;
11907;SDS011;6014;47.690;9.130;2024-01-30T14:49:10;10.85;;;5.30;;
11907;SDS011;6014;47.690;9.130;2024-01-30T14:51:39;9.82;;;5.57;;
11907;SDS011;6014;47.690;9.130;2024-01-30T14:54:07;9.82;;;5.28;;
11907;SDS011;6014;47.690;9.130;2024-01-30T14:56:35;10.35;;;6.13;;
11907;SDS011;6014;47.690;9.130;2024-01-30T14:59:03;9.93;;;5.30;;
11907;SDS011;6014;47.690;9.130;2024-01-30T15:01:31;10.25;;;5.88;;
11907;SDS011;6014;47.690;9.130;2024-01-30T15:04:00;9.38;;;5.47;;
11907;SDS011;6014;47.690;9.130;2024-01-30T15:06:29;10.82;;;5.88;;
11907;SDS011;6014;47.690;9.130;2024-01-30T15:08:57;10.38;;;5.47;;
11907;SDS011;6014;47.690;9.130;2024-01-30T15:11:26;14.07;;;5.65;;
11907;SDS011;6014;47.690;9.130;2024-01-30T15:13:54;9.40;;;5.90;;
11907;SDS011;6014;47.690;9.130;2024-01-30T15:16:22;11.45;;;5.95;;
11907;SDS011;6014;47.690;9.130;2024-01-30T15:18:51;10.93;;;5.27;;
11907;SDS011;6014;47.690;9.130;2024-01-30T15:21:22;10.47;;;5.57;;
11907;SDS011;6014;47.690;9.130;2024-01-30T15:23:52;9.73;;;5.70;;
11907;SDS011;6014;47.690;9.130;2024-01-30T15:26:20;11.23;;;5.63;;
11907;SDS011;6014;47.690;9.130;2024-01-30T15:28:48;11.17;;;6.17;;
11907;SDS011;6014;47.690;9.130;2024-01-30T15:31:16;11.20;;;6.50;;
11907;SDS011;6014;47.690;9.130;2024-01-30T15:33:44;10.30;;;5.63;;
11907;SDS011;6014;47.690;9.130;2024-01-30T15:36:12;10.07;;;5.60;;
11907;SDS011;6014;47.690;9.130;2024-01-30T15:38:42;9.10;;;5.60;;
11907;SDS011;6014;47.690;9.130;2024-01-30T15:41:10;10.17;;;5.53;;
11907;SDS011;6014;47.690;9.130;2024-01-30T15:46:10;10.33;;;5.67;;